sensor_id;sensor_type;location;lat;lon;timestamp;P1;durP1;ratioP1;P2;durP2;ratioP2
31652;SDS011;18261;53.648;9.910;2024-03-08T00:00:43;48.53;;;26.00;;
31652;SDS011;18261;53.648;9.910;2024-03-08T00:03:09;52.15;;;26.50;;
31652;SDS011;18261;53.648;9.910;2024-03-08T00:05:35;49.17;;;26.35;;
31652;SDS011;18261;53.648;9.910;2024-03-08T00:08:04;49.63;;;25.95;;
31652;SDS011;18261;53.648;9.910;2024-03-08T00:10:30;47.63;;;24.90;;
31652;SDS011;18261;53.648;9.910;2024-03-08T00:12:56;48.55;;;26.75;;
31652;SDS011;18261;53.648;9.910;2024-03-08T00:15:22;52.00;;;26.65;;
31652;SDS011;18261;53.648;9.910;2024-03-08T00:17:48;47.92;;;25.58;;
31652;SDS011;18261;53.648;9.910;2024-03-08T00:20:15;47.38;;;25.30;;
31652;SDS011;18261;53.648;9.910;2024-03-08T00:22:42;49.83;;;25.98;;
31652;SDS011;18261;53.648;9.910;2024-03-08T00:25:09;50.50;;;26.25;;
31652;SDS011;18261;53.648;9.910;2024-03-08T00:27:35;48.67;;;25.88;;
31652;SDS011;18261;53.648;9.910;2024-03-08T00:30:01;50.92;;;25.75;;
31652;SDS011;18261;53.648;9.910;2024-03-08T00:32:27;47.90;;;25.05;;
31652;SDS011;18261;53.648;9.910;2024-03-08T00:34:54;49.22;;;25.13;;
31652;SDS011;18261;53.648;9.910;2024-03-08T00:37:20;46.47;;;24.63;;
31652;SDS011;18261;53.648;9.910;2024-03-08T00:39:52;51.92;;;25.73;;
31652;SDS011;18261;53.648;9.910;2024-03-08T00:42:19;51.10;;;25.85;;
31652;SDS011;18261;53.648;9.910;2024-03-08T00:44:45;54.95;;;25.90;;
31652;SDS011;18261;53.648;9.910;2024-03-08T00:47:11;48.97;;;25.05;;
31652;SDS011;18261;53.648;9.910;2024-03-08T00:49:37;51.33;;;26.00;;
31652;SDS011;18261;53.648;9.910;2024-03-08T00:52:04;48.83;;;23.77;;
31652;SDS011;18261;53.648;9.910;2024-03-08T00:54:36;48.22;;;24.90;;
31652;SDS011;18261;53.648;9.910;2024-03-08T00:57:02;47.10;;;24.55;;
31652;SDS011;18261;53.648;9.910;2024-03-08T00:59:28;47.60;;;24.70;;
31652;SDS011;18261;53.648;9.910;2024-03-08T01:01:55;52.67;;;25.52;;
31652;SDS011;18261;53.648;9.910;2024-03-08T01:04:21;51.95;;;24.48;;
31652;SDS011;18261;53.648;9.910;2024-03-08T01:06:48;53.05;;;25.20;;
31652;SDS011;18261;53.648;9.910;2024-03-08T01:09:14;47.75;;;24.65;;
31652;SDS011;18261;53.648;9.910;2024-03-08T01:11:42;50.38;;;25.08;;
31652;SDS011;18261;53.648;9.910;2024-03-08T01:14:08;48.83;;;25.38;;
31652;SDS011;18261;53.648;9.910;2024-03-08T01:16:34;51.55;;;25.05;;
31652;SDS011;18261;53.648;9.910;2024-03-08T01:19:00;46.60;;;23.80;;
31652;SDS011;18261;53.648;9.910;2024-03-08T01:21:26;54.97;;;25.27;;
31652;SDS011;18261;53.648;9.910;2024-03-08T01:23:52;49.33;;;24.90;;
31652;SDS011;18261;53.648;9.910;2024-03-08T01:26:18;49.30;;;25.05;;
31652;SDS011;18261;53.648;9.910;2024-03-08T01:28:44;48.10;;;23.83;;
31652;SDS011;18261;53.648;9.910;2024-03-08T01:31:10;47.97;;;24.40;;
31652;SDS011;18261;53.648;9.910;2024-03-08T01:33:37;48.65;;;24.85;;
31652;SDS011;18261;53.648;9.910;2024-03-08T01:36:03;48.33;;;24.70;;
31652;SDS011;18261;53.648;9.910;2024-03-08T01:38:29;49.65;;;24.77;;
31652;SDS011;18261;53.648;9.910;2024-03-08T01:40:55;48.35;;;24.98;;
31652;SDS011;18261;53.648;9.910;2024-03-08T01:43:21;45.17;;;24.30;;
31652;SDS011;18261;53.648;9.910;2024-03-08T01:45:48;50.67;;;25.73;;
31652;SDS011;18261;53.648;9.910;2024-03-08T01:48:14;45.30;;;23.90;;
31652;SDS011;18261;53.648;9.910;2024-03-08T01:50:41;48.38;;;25.23;;
31652;SDS011;18261;53.648;9.910;2024-03-08T01:53:07;47.03;;;24.95;;
31652;SDS011;18261;53.648;9.910;2024-03-08T01:55:35;50.17;;;24.75;;
31652;SDS011;18261;53.648;9.910;2024-03-08T01:58:02;47.95;;;24.75;;
31652;SDS011;18261;53.648;9.910;2024-03-08T02:00:29;44.97;;;23.83;;
31652;SDS011;18261;53.648;9.910;2024-03-08T02:02:55;47.35;;;24.65;;
31652;SDS011;18261;53.648;9.910;2024-03-08T02:05:22;49.40;;;24.23;;
31652;SDS011;18261;53.648;9.910;2024-03-08T02:07:48;48.35;;;25.58;;
31652;SDS011;18261;53.648;9.910;2024-03-08T02:10:14;50.15;;;24.92;;
31652;SDS011;18261;53.648;9.910;2024-03-08T02:12:41;45.83;;;24.35;;
31652;SDS011;18261;53.648;9.910;2024-03-08T02:15:07;52.03;;;25.00;;
31652;SDS011;18261;53.648;9.910;2024-03-08T02:17:33;50.20;;;24.27;;
31652;SDS011;18261;53.648;9.910;2024-03-08T02:19:59;48.97;;;24.80;;
31652;SDS011;18261;53.648;9.910;2024-03-08T02:22:27;49.17;;;25.50;;
31652;SDS011;18261;53.648;9.910;2024-03-08T02:24:53;48.05;;;25.15;;
31652;SDS011;18261;53.648;9.910;2024-03-08T02:27:23;49.90;;;24.58;;
31652;SDS011;18261;53.648;9.910;2024-03-08T02:29:50;50.08;;;25.92;;
31652;SDS011;18261;53.648;9.910;2024-03-08T02:32:16;49.95;;;26.15;;
31652;SDS011;18261;53.648;9.910;2024-03-08T02:34:43;53.88;;;26.25;;
31652;SDS011;18261;53.648;9.910;2024-03-08T02:37:09;50.42;;;26.25;;
31652;SDS011;18261;53.648;9.910;2024-03-08T02:39:35;53.33;;;26.52;;
31652;SDS011;18261;53.648;9.910;2024-03-08T02:42:01;48.53;;;26.17;;
31652;SDS011;18261;53.648;9.910;2024-03-08T02:44:27;55.58;;;27.48;;
31652;SDS011;18261;53.648;9.910;2024-03-08T02:46:53;56.35;;;26.38;;
31652;SDS011;18261;53.648;9.910;2024-03-08T02:49:20;56.22;;;26.50;;
31652;SDS011;18261;53.648;9.910;2024-03-08T02:51:46;51.60;;;25.50;;
31652;SDS011;18261;53.648;9.910;2024-03-08T02:54:12;53.45;;;26.45;;
31652;SDS011;18261;53.648;9.910;2024-03-08T02:56:38;50.22;;;26.33;;
31652;SDS011;18261;53.648;9.910;2024-03-08T02:59:04;53.95;;;27.45;;
31652;SDS011;18261;53.648;9.910;2024-03-08T03:01:30;58.58;;;28.08;;
31652;SDS011;18261;53.648;9.910;2024-03-08T03:03:57;53.58;;;27.48;;
31652;SDS011;18261;53.648;9.910;2024-03-08T03:06:23;54.90;;;27.25;;
31652;SDS011;18261;53.648;9.910;2024-03-08T03:08:49;56.80;;;29.75;;
31652;SDS011;18261;53.648;9.910;2024-03-08T03:11:16;55.10;;;29.10;;
31652;SDS011;18261;53.648;9.910;2024-03-08T03:13:42;53.15;;;28.10;;
31652;SDS011;18261;53.648;9.910;2024-03-08T03:16:16;61.45;;;30.02;;
31652;SDS011;18261;53.648;9.910;2024-03-08T03:18:43;56.15;;;29.42;;
31652;SDS011;18261;53.648;9.910;2024-03-08T03:21:10;54.00;;;28.55;;
31652;SDS011;18261;53.648;9.910;2024-03-08T03:23:37;55.40;;;29.15;;
31652;SDS011;18261;53.648;9.910;2024-03-08T03:26:04;57.78;;;29.27;;
31652;SDS011;18261;53.648;9.910;2024-03-08T03:28:32;58.35;;;29.70;;
31652;SDS011;18261;53.648;9.910;2024-03-08T03:30:58;57.95;;;29.05;;
31652;SDS011;18261;53.648;9.910;2024-03-08T03:33:24;57.78;;;30.05;;
31652;SDS011;18261;53.648;9.910;2024-03-08T03:35:50;58.58;;;30.42;;
31652;SDS011;18261;53.648;9.910;2024-03-08T03:38:17;59.17;;;30.27;;
31652;SDS011;18261;53.648;9.910;2024-03-08T03:40:44;53.63;;;28.73;;
31652;SDS011;18261;53.648;9.910;2024-03-08T03:43:11;55.25;;;28.52;;
31652;SDS011;18261;53.648;9.910;2024-03-08T03:45:37;52.47;;;28.20;;
31652;SDS011;18261;53.648;9.910;2024-03-08T03:48:04;62.30;;;30.63;;
31652;SDS011;18261;53.648;9.910;2024-03-08T03:50:31;60.97;;;29.08;;
31652;SDS011;18261;53.648;9.910;2024-03-08T03:52:59;59.60;;;28.70;;
31652;SDS011;18261;53.648;9.910;2024-03-08T03:55:25;61.88;;;31.00;;
31652;SDS011;18261;53.648;9.910;2024-03-08T03:57:50;56.15;;;30.27;;
31652;SDS011;18261;53.648;9.910;2024-03-08T04:00:16;61.80;;;30.40;;
31652;SDS011;18261;53.648;9.910;2024-03-08T04:02:42;66.03;;;30.45;;
31652;SDS011;18261;53.648;9.910;2024-03-08T04:05:08;55.03;;;29.73;;
31652;SDS011;18261;53.648;9.910;2024-03-08T04:07:35;55.47;;;29.42;;
31652;SDS011;18261;53.648;9.910;2024-03-08T04:10:01;57.03;;;30.35;;
31652;SDS011;18261;53.648;9.910;2024-03-08T04:12:27;61.80;;;30.95;;
31652;SDS011;18261;53.648;9.910;2024-03-08T04:14:54;65.10;;;31.10;;
31652;SDS011;18261;53.648;9.910;2024-03-08T04:17:20;59.70;;;30.13;;
31652;SDS011;18261;53.648;9.910;2024-03-08T04:19:46;57.25;;;30.67;;
31652;SDS011;18261;53.648;9.910;2024-03-08T04:22:13;52.40;;;28.75;;
31652;SDS011;18261;53.648;9.910;2024-03-08T04:24:39;64.57;;;30.48;;
31652;SDS011;18261;53.648;9.910;2024-03-08T04:27:05;56.65;;;29.65;;
31652;SDS011;18261;53.648;9.910;2024-03-08T04:29:31;56.08;;;29.40;;
31652;SDS011;18261;53.648;9.910;2024-03-08T04:31:57;54.80;;;28.67;;
31652;SDS011;18261;53.648;9.910;2024-03-08T04:34:23;54.20;;;29.52;;
31652;SDS011;18261;53.648;9.910;2024-03-08T04:36:49;58.25;;;29.85;;
31652;SDS011;18261;53.648;9.910;2024-03-08T04:39:15;52.75;;;28.90;;
31652;SDS011;18261;53.648;9.910;2024-03-08T04:41:41;57.05;;;29.65;;
31652;SDS011;18261;53.648;9.910;2024-03-08T04:44:08;54.38;;;29.45;;
31652;SDS011;18261;53.648;9.910;2024-03-08T04:46:37;53.50;;;29.65;;
31652;SDS011;18261;53.648;9.910;2024-03-08T04:49:03;53.55;;;29.30;;
31652;SDS011;18261;53.648;9.910;2024-03-08T04:51:29;59.35;;;28.98;;
31652;SDS011;18261;53.648;9.910;2024-03-08T04:53:54;56.85;;;30.75;;
31652;SDS011;18261;53.648;9.910;2024-03-08T04:56:22;55.78;;;28.70;;
31652;SDS011;18261;53.648;9.910;2024-03-08T04:58:47;59.17;;;30.85;;
31652;SDS011;18261;53.648;9.910;2024-03-08T05:01:13;56.05;;;29.58;;
31652;SDS011;18261;53.648;9.910;2024-03-08T05:03:38;60.55;;;29.50;;
31652;SDS011;18261;53.648;9.910;2024-03-08T05:06:04;56.58;;;29.33;;
31652;SDS011;18261;53.648;9.910;2024-03-08T05:08:30;64.20;;;32.05;;
31652;SDS011;18261;53.648;9.910;2024-03-08T05:10:55;56.42;;;29.83;;
31652;SDS011;18261;53.648;9.910;2024-03-08T05:13:21;56.80;;;29.88;;
31652;SDS011;18261;53.648;9.910;2024-03-08T05:15:48;56.65;;;29.63;;
31652;SDS011;18261;53.648;9.910;2024-03-08T05:18:15;59.70;;;31.55;;
31652;SDS011;18261;53.648;9.910;2024-03-08T05:20:41;62.88;;;30.48;;
31652;SDS011;18261;53.648;9.910;2024-03-08T05:23:07;61.80;;;31.17;;
31652;SDS011;18261;53.648;9.910;2024-03-08T05:25:33;68.43;;;30.27;;
31652;SDS011;18261;53.648;9.910;2024-03-08T05:27:59;56.80;;;30.25;;
31652;SDS011;18261;53.648;9.910;2024-03-08T05:30:24;59.13;;;29.48;;
31652;SDS011;18261;53.648;9.910;2024-03-08T05:32:50;58.47;;;30.90;;
31652;SDS011;18261;53.648;9.910;2024-03-08T05:35:15;63.75;;;30.10;;
31652;SDS011;18261;53.648;9.910;2024-03-08T05:37:41;56.70;;;29.55;;
31652;SDS011;18261;53.648;9.910;2024-03-08T05:40:10;60.25;;;30.45;;
31652;SDS011;18261;53.648;9.910;2024-03-08T05:42:35;58.22;;;30.25;;
31652;SDS011;18261;53.648;9.910;2024-03-08T05:45:01;63.63;;;29.25;;
31652;SDS011;18261;53.648;9.910;2024-03-08T05:47:28;58.65;;;29.45;;
31652;SDS011;18261;53.648;9.910;2024-03-08T05:49:53;55.72;;;29.13;;
31652;SDS011;18261;53.648;9.910;2024-03-08T05:52:19;66.63;;;31.30;;
31652;SDS011;18261;53.648;9.910;2024-03-08T05:54:45;64.63;;;30.75;;
31652;SDS011;18261;53.648;9.910;2024-03-08T05:57:12;59.15;;;30.88;;
31652;SDS011;18261;53.648;9.910;2024-03-08T05:59:39;59.78;;;31.02;;
31652;SDS011;18261;53.648;9.910;2024-03-08T06:02:04;59.40;;;30.02;;
31652;SDS011;18261;53.648;9.910;2024-03-08T06:04:30;58.97;;;31.42;;
31652;SDS011;18261;53.648;9.910;2024-03-08T06:06:56;60.17;;;31.45;;
31652;SDS011;18261;53.648;9.910;2024-03-08T06:09:23;55.50;;;29.27;;
31652;SDS011;18261;53.648;9.910;2024-03-08T06:11:51;63.90;;;32.28;;
31652;SDS011;18261;53.648;9.910;2024-03-08T06:14:18;62.42;;;31.00;;
31652;SDS011;18261;53.648;9.910;2024-03-08T06:16:45;64.07;;;31.65;;
31652;SDS011;18261;53.648;9.910;2024-03-08T06:19:11;61.63;;;30.60;;
31652;SDS011;18261;53.648;9.910;2024-03-08T06:21:37;69.32;;;34.05;;
31652;SDS011;18261;53.648;9.910;2024-03-08T06:24:03;67.15;;;33.20;;
31652;SDS011;18261;53.648;9.910;2024-03-08T06:26:29;62.05;;;32.03;;
31652;SDS011;18261;53.648;9.910;2024-03-08T06:28:55;72.22;;;34.58;;
31652;SDS011;18261;53.648;9.910;2024-03-08T06:31:21;58.88;;;31.73;;
31652;SDS011;18261;53.648;9.910;2024-03-08T06:33:46;63.67;;;31.60;;
31652;SDS011;18261;53.648;9.910;2024-03-08T06:36:15;64.10;;;31.35;;
31652;SDS011;18261;53.648;9.910;2024-03-08T06:38:43;68.07;;;34.00;;
31652;SDS011;18261;53.648;9.910;2024-03-08T06:41:12;62.22;;;32.30;;
31652;SDS011;18261;53.648;9.910;2024-03-08T06:43:40;64.22;;;33.30;;
31652;SDS011;18261;53.648;9.910;2024-03-08T06:46:10;62.53;;;31.75;;
31652;SDS011;18261;53.648;9.910;2024-03-08T06:48:37;64.82;;;32.95;;
31652;SDS011;18261;53.648;9.910;2024-03-08T06:51:03;64.90;;;33.33;;
31652;SDS011;18261;53.648;9.910;2024-03-08T06:53:30;63.22;;;33.53;;
31652;SDS011;18261;53.648;9.910;2024-03-08T06:55:56;68.35;;;33.45;;
31652;SDS011;18261;53.648;9.910;2024-03-08T06:58:22;63.45;;;32.47;;
31652;SDS011;18261;53.648;9.910;2024-03-08T07:00:48;69.65;;;33.63;;
31652;SDS011;18261;53.648;9.910;2024-03-08T07:03:17;63.30;;;34.13;;
31652;SDS011;18261;53.648;9.910;2024-03-08T07:05:43;63.80;;;33.47;;
31652;SDS011;18261;53.648;9.910;2024-03-08T07:08:09;61.08;;;34.50;;
31652;SDS011;18261;53.648;9.910;2024-03-08T07:10:34;65.18;;;34.03;;
31652;SDS011;18261;53.648;9.910;2024-03-08T07:13:02;63.78;;;35.13;;
31652;SDS011;18261;53.648;9.910;2024-03-08T07:15:27;74.22;;;34.85;;
31652;SDS011;18261;53.648;9.910;2024-03-08T07:17:53;70.75;;;34.75;;
31652;SDS011;18261;53.648;9.910;2024-03-08T07:20:20;60.70;;;33.78;;
31652;SDS011;18261;53.648;9.910;2024-03-08T07:22:46;69.18;;;34.03;;
31652;SDS011;18261;53.648;9.910;2024-03-08T07:25:15;66.10;;;34.47;;
31652;SDS011;18261;53.648;9.910;2024-03-08T07:27:48;66.15;;;33.42;;
31652;SDS011;18261;53.648;9.910;2024-03-08T07:30:14;64.82;;;32.95;;
31652;SDS011;18261;53.648;9.910;2024-03-08T07:33:19;71.83;;;36.17;;
31652;SDS011;18261;53.648;9.910;2024-03-08T07:35:45;63.22;;;33.08;;
31652;SDS011;18261;53.648;9.910;2024-03-08T07:38:11;64.47;;;32.42;;
31652;SDS011;18261;53.648;9.910;2024-03-08T07:40:38;73.50;;;34.20;;
31652;SDS011;18261;53.648;9.910;2024-03-08T07:43:06;68.97;;;33.67;;
31652;SDS011;18261;53.648;9.910;2024-03-08T07:45:32;66.53;;;33.45;;
31652;SDS011;18261;53.648;9.910;2024-03-08T07:47:57;64.10;;;32.20;;
31652;SDS011;18261;53.648;9.910;2024-03-08T07:50:23;88.00;;;39.90;;
31652;SDS011;18261;53.648;9.910;2024-03-08T07:52:49;79.53;;;36.40;;
31652;SDS011;18261;53.648;9.910;2024-03-08T07:55:14;64.85;;;32.88;;
31652;SDS011;18261;53.648;9.910;2024-03-08T07:57:40;58.47;;;30.63;;
31652;SDS011;18261;53.648;9.910;2024-03-08T08:00:07;61.97;;;31.83;;
31652;SDS011;18261;53.648;9.910;2024-03-08T08:02:34;59.95;;;32.25;;
31652;SDS011;18261;53.648;9.910;2024-03-08T08:05:00;59.45;;;31.50;;
31652;SDS011;18261;53.648;9.910;2024-03-08T08:07:26;59.42;;;31.23;;
31652;SDS011;18261;53.648;9.910;2024-03-08T08:09:52;58.92;;;31.23;;
31652;SDS011;18261;53.648;9.910;2024-03-08T08:12:18;63.05;;;32.10;;
31652;SDS011;18261;53.648;9.910;2024-03-08T08:14:44;63.15;;;31.83;;
31652;SDS011;18261;53.648;9.910;2024-03-08T08:17:09;64.90;;;32.22;;
31652;SDS011;18261;53.648;9.910;2024-03-08T08:19:36;58.95;;;30.15;;
31652;SDS011;18261;53.648;9.910;2024-03-08T08:22:01;56.05;;;30.52;;
31652;SDS011;18261;53.648;9.910;2024-03-08T08:24:27;65.70;;;31.08;;
31652;SDS011;18261;53.648;9.910;2024-03-08T08:26:53;64.18;;;30.88;;
31652;SDS011;18261;53.648;9.910;2024-03-08T08:29:19;59.20;;;30.38;;
31652;SDS011;18261;53.648;9.910;2024-03-08T08:31:45;55.03;;;30.13;;
31652;SDS011;18261;53.648;9.910;2024-03-08T08:34:12;57.20;;;30.77;;
31652;SDS011;18261;53.648;9.910;2024-03-08T08:36:38;56.83;;;30.27;;
31652;SDS011;18261;53.648;9.910;2024-03-08T08:39:04;57.15;;;30.02;;
31652;SDS011;18261;53.648;9.910;2024-03-08T08:41:37;55.65;;;28.65;;
31652;SDS011;18261;53.648;9.910;2024-03-08T08:44:03;53.85;;;28.80;;
31652;SDS011;18261;53.648;9.910;2024-03-08T08:46:28;54.25;;;28.73;;
31652;SDS011;18261;53.648;9.910;2024-03-08T08:48:54;56.33;;;29.48;;
31652;SDS011;18261;53.648;9.910;2024-03-08T08:51:20;54.30;;;28.73;;
31652;SDS011;18261;53.648;9.910;2024-03-08T08:53:45;53.97;;;28.02;;
31652;SDS011;18261;53.648;9.910;2024-03-08T08:56:12;50.33;;;27.73;;
31652;SDS011;18261;53.648;9.910;2024-03-08T08:58:42;52.28;;;27.88;;
31652;SDS011;18261;53.648;9.910;2024-03-08T09:01:08;51.38;;;27.73;;
31652;SDS011;18261;53.648;9.910;2024-03-08T09:03:37;48.15;;;25.98;;
31652;SDS011;18261;53.648;9.910;2024-03-08T09:06:05;48.95;;;26.55;;
31652;SDS011;18261;53.648;9.910;2024-03-08T09:08:34;50.28;;;26.98;;
31652;SDS011;18261;53.648;9.910;2024-03-08T09:11:03;45.90;;;26.05;;
31652;SDS011;18261;53.648;9.910;2024-03-08T09:13:29;45.00;;;25.88;;
31652;SDS011;18261;53.648;9.910;2024-03-08T09:15:54;52.22;;;27.27;;
31652;SDS011;18261;53.648;9.910;2024-03-08T09:18:22;47.00;;;27.33;;
31652;SDS011;18261;53.648;9.910;2024-03-08T09:20:49;42.65;;;26.20;;
31652;SDS011;18261;53.648;9.910;2024-03-08T09:23:14;47.60;;;26.88;;
31652;SDS011;18261;53.648;9.910;2024-03-08T09:25:41;47.78;;;26.23;;
31652;SDS011;18261;53.648;9.910;2024-03-08T09:28:08;46.30;;;27.15;;
31652;SDS011;18261;53.648;9.910;2024-03-08T09:30:36;46.08;;;25.83;;
31652;SDS011;18261;53.648;9.910;2024-03-08T09:33:03;46.65;;;26.48;;
31652;SDS011;18261;53.648;9.910;2024-03-08T09:35:29;43.72;;;26.35;;
31652;SDS011;18261;53.648;9.910;2024-03-08T09:37:55;45.00;;;26.42;;
31652;SDS011;18261;53.648;9.910;2024-03-08T09:40:21;43.85;;;26.15;;
31652;SDS011;18261;53.648;9.910;2024-03-08T09:42:49;39.70;;;24.90;;
31652;SDS011;18261;53.648;9.910;2024-03-08T09:45:14;46.47;;;26.05;;
31652;SDS011;18261;53.648;9.910;2024-03-08T09:47:42;38.10;;;23.88;;
31652;SDS011;18261;53.648;9.910;2024-03-08T09:50:09;43.13;;;25.17;;
31652;SDS011;18261;53.648;9.910;2024-03-08T09:52:38;47.60;;;25.75;;
31652;SDS011;18261;53.648;9.910;2024-03-08T09:55:05;39.60;;;25.10;;
31652;SDS011;18261;53.648;9.910;2024-03-08T09:57:32;44.13;;;26.35;;
31652;SDS011;18261;53.648;9.910;2024-03-08T09:59:58;39.70;;;25.15;;
31652;SDS011;18261;53.648;9.910;2024-03-08T10:02:24;36.95;;;23.50;;
31652;SDS011;18261;53.648;9.910;2024-03-08T10:04:51;41.25;;;24.17;;
31652;SDS011;18261;53.648;9.910;2024-03-08T10:07:18;37.13;;;23.55;;
31652;SDS011;18261;53.648;9.910;2024-03-08T10:09:44;44.35;;;23.98;;
31652;SDS011;18261;53.648;9.910;2024-03-08T10:12:15;40.13;;;23.63;;
31652;SDS011;18261;53.648;9.910;2024-03-08T10:14:42;41.55;;;22.45;;
31652;SDS011;18261;53.648;9.910;2024-03-08T10:17:08;43.75;;;24.50;;
31652;SDS011;18261;53.648;9.910;2024-03-08T10:19:34;43.22;;;23.52;;
31652;SDS011;18261;53.648;9.910;2024-03-08T10:22:00;45.13;;;24.13;;
31652;SDS011;18261;53.648;9.910;2024-03-08T10:24:26;55.08;;;23.80;;
31652;SDS011;18261;53.648;9.910;2024-03-08T10:27:00;38.45;;;22.65;;
31652;SDS011;18261;53.648;9.910;2024-03-08T10:29:33;38.20;;;23.77;;
31652;SDS011;18261;53.648;9.910;2024-03-08T10:31:58;37.15;;;23.40;;
31652;SDS011;18261;53.648;9.910;2024-03-08T10:34:25;42.58;;;23.83;;
31652;SDS011;18261;53.648;9.910;2024-03-08T10:36:51;38.30;;;23.02;;
31652;SDS011;18261;53.648;9.910;2024-03-08T10:39:21;42.15;;;24.20;;
31652;SDS011;18261;53.648;9.910;2024-03-08T10:41:50;51.20;;;29.13;;
31652;SDS011;18261;53.648;9.910;2024-03-08T10:49:32;39.88;;;23.23;;
31652;SDS011;18261;53.648;9.910;2024-03-08T10:52:05;33.53;;;22.25;;
31652;SDS011;18261;53.648;9.910;2024-03-08T10:54:34;40.70;;;25.08;;
31652;SDS011;18261;53.648;9.910;2024-03-08T10:57:03;42.03;;;24.48;;
31652;SDS011;18261;53.648;9.910;2024-03-08T10:59:31;38.55;;;22.77;;
31652;SDS011;18261;53.648;9.910;2024-03-08T11:01:57;39.70;;;24.10;;
31652;SDS011;18261;53.648;9.910;2024-03-08T11:04:23;38.25;;;23.85;;
31652;SDS011;18261;53.648;9.910;2024-03-08T11:06:50;34.88;;;22.33;;
31652;SDS011;18261;53.648;9.910;2024-03-08T11:09:28;37.03;;;23.88;;
31652;SDS011;18261;53.648;9.910;2024-03-08T11:14:43;37.60;;;22.30;;
31652;SDS011;18261;53.648;9.910;2024-03-08T11:17:12;40.05;;;21.90;;
31652;SDS011;18261;53.648;9.910;2024-03-08T11:19:44;33.67;;;21.02;;
31652;SDS011;18261;53.648;9.910;2024-03-08T11:22:13;36.88;;;21.38;;
31652;SDS011;18261;53.648;9.910;2024-03-08T11:24:47;32.85;;;21.63;;
31652;SDS011;18261;53.648;9.910;2024-03-08T11:27:12;32.70;;;21.73;;
31652;SDS011;18261;53.648;9.910;2024-03-08T11:29:38;34.75;;;20.83;;
31652;SDS011;18261;53.648;9.910;2024-03-08T11:32:06;32.28;;;20.63;;
31652;SDS011;18261;53.648;9.910;2024-03-08T11:34:33;31.58;;;20.42;;
31652;SDS011;18261;53.648;9.910;2024-03-08T11:36:59;33.00;;;20.35;;
31652;SDS011;18261;53.648;9.910;2024-03-08T11:39:25;31.75;;;19.80;;
31652;SDS011;18261;53.648;9.910;2024-03-08T11:41:53;32.53;;;20.50;;
31652;SDS011;18261;53.648;9.910;2024-03-08T11:44:20;32.47;;;20.52;;
31652;SDS011;18261;53.648;9.910;2024-03-08T11:46:46;34.15;;;20.95;;
31652;SDS011;18261;53.648;9.910;2024-03-08T11:49:13;33.65;;;21.15;;
31652;SDS011;18261;53.648;9.910;2024-03-08T11:51:39;32.13;;;21.10;;
31652;SDS011;18261;53.648;9.910;2024-03-08T11:54:06;31.10;;;20.48;;
31652;SDS011;18261;53.648;9.910;2024-03-08T11:56:32;38.58;;;21.00;;
31652;SDS011;18261;53.648;9.910;2024-03-08T11:58:59;33.22;;;21.38;;
31652;SDS011;18261;53.648;9.910;2024-03-08T12:01:26;42.38;;;22.73;;
31652;SDS011;18261;53.648;9.910;2024-03-08T12:03:56;38.35;;;21.20;;
31652;SDS011;18261;53.648;9.910;2024-03-08T12:06:26;31.88;;;20.20;;
31652;SDS011;18261;53.648;9.910;2024-03-08T12:08:52;30.63;;;20.00;;
31652;SDS011;18261;53.648;9.910;2024-03-08T12:11:18;30.33;;;19.58;;
31652;SDS011;18261;53.648;9.910;2024-03-08T12:13:48;30.35;;;19.15;;
31652;SDS011;18261;53.648;9.910;2024-03-08T12:16:15;37.38;;;20.52;;
31652;SDS011;18261;53.648;9.910;2024-03-08T12:18:43;30.80;;;19.95;;
31652;SDS011;18261;53.648;9.910;2024-03-08T12:21:10;36.22;;;20.92;;
31652;SDS011;18261;53.648;9.910;2024-03-08T12:23:37;32.30;;;20.08;;
31652;SDS011;18261;53.648;9.910;2024-03-08T12:26:17;35.92;;;21.65;;
31652;SDS011;18261;53.648;9.910;2024-03-08T12:28:44;31.77;;;20.40;;
31652;SDS011;18261;53.648;9.910;2024-03-08T12:31:13;32.50;;;19.77;;
31652;SDS011;18261;53.648;9.910;2024-03-08T12:33:51;46.08;;;23.02;;
31652;SDS011;18261;53.648;9.910;2024-03-08T12:36:18;31.73;;;19.77;;
31652;SDS011;18261;53.648;9.910;2024-03-08T12:38:46;31.13;;;20.48;;
31652;SDS011;18261;53.648;9.910;2024-03-08T12:41:16;31.02;;;18.40;;
31652;SDS011;18261;53.648;9.910;2024-03-08T12:43:45;29.90;;;19.08;;
31652;SDS011;18261;53.648;9.910;2024-03-08T12:46:17;30.05;;;19.60;;
31652;SDS011;18261;53.648;9.910;2024-03-08T12:48:55;35.33;;;20.52;;
31652;SDS011;18261;53.648;9.910;2024-03-08T12:51:21;29.77;;;19.15;;
31652;SDS011;18261;53.648;9.910;2024-03-08T12:53:47;26.40;;;18.10;;
31652;SDS011;18261;53.648;9.910;2024-03-08T12:56:14;30.17;;;19.92;;
31652;SDS011;18261;53.648;9.910;2024-03-08T12:58:45;30.98;;;19.67;;
31652;SDS011;18261;53.648;9.910;2024-03-08T13:01:11;27.92;;;18.48;;
31652;SDS011;18261;53.648;9.910;2024-03-08T13:03:38;29.48;;;18.58;;
31652;SDS011;18261;53.648;9.910;2024-03-08T13:06:05;29.38;;;19.13;;
31652;SDS011;18261;53.648;9.910;2024-03-08T13:08:34;30.92;;;18.55;;
31652;SDS011;18261;53.648;9.910;2024-03-08T13:11:00;30.45;;;18.63;;
31652;SDS011;18261;53.648;9.910;2024-03-08T13:13:28;27.67;;;18.27;;
31652;SDS011;18261;53.648;9.910;2024-03-08T13:15:54;30.55;;;17.25;;
31652;SDS011;18261;53.648;9.910;2024-03-08T13:18:21;33.08;;;18.75;;
31652;SDS011;18261;53.648;9.910;2024-03-08T13:20:48;28.38;;;17.23;;
31652;SDS011;18261;53.648;9.910;2024-03-08T13:23:17;28.08;;;17.85;;
31652;SDS011;18261;53.648;9.910;2024-03-08T13:25:43;29.58;;;17.25;;
31652;SDS011;18261;53.648;9.910;2024-03-08T13:28:09;28.80;;;17.45;;
31652;SDS011;18261;53.648;9.910;2024-03-08T13:30:36;29.27;;;17.00;;
31652;SDS011;18261;53.648;9.910;2024-03-08T13:33:02;29.10;;;17.75;;
31652;SDS011;18261;53.648;9.910;2024-03-08T13:35:29;30.25;;;17.98;;
31652;SDS011;18261;53.648;9.910;2024-03-08T13:37:55;27.52;;;17.73;;
31652;SDS011;18261;53.648;9.910;2024-03-08T13:40:21;30.23;;;18.23;;
31652;SDS011;18261;53.648;9.910;2024-03-08T13:42:48;26.65;;;17.02;;
31652;SDS011;18261;53.648;9.910;2024-03-08T13:45:14;27.60;;;17.95;;
31652;SDS011;18261;53.648;9.910;2024-03-08T13:47:47;32.15;;;18.08;;
31652;SDS011;18261;53.648;9.910;2024-03-08T13:50:14;28.60;;;17.52;;
31652;SDS011;18261;53.648;9.910;2024-03-08T13:52:46;31.23;;;17.92;;
31652;SDS011;18261;53.648;9.910;2024-03-08T13:55:12;26.55;;;17.77;;
31652;SDS011;18261;53.648;9.910;2024-03-08T13:57:39;30.83;;;16.77;;
31652;SDS011;18261;53.648;9.910;2024-03-08T14:00:05;27.88;;;16.40;;
31652;SDS011;18261;53.648;9.910;2024-03-08T14:02:32;28.60;;;16.80;;
31652;SDS011;18261;53.648;9.910;2024-03-08T14:04:58;25.48;;;16.05;;
31652;SDS011;18261;53.648;9.910;2024-03-08T14:07:26;25.65;;;16.20;;
31652;SDS011;18261;53.648;9.910;2024-03-08T14:09:54;24.30;;;16.02;;
31652;SDS011;18261;53.648;9.910;2024-03-08T14:12:20;23.83;;;15.25;;
31652;SDS011;18261;53.648;9.910;2024-03-08T14:14:46;21.70;;;15.27;;
31652;SDS011;18261;53.648;9.910;2024-03-08T14:17:12;28.65;;;17.77;;
31652;SDS011;18261;53.648;9.910;2024-03-08T14:19:42;29.98;;;17.50;;
31652;SDS011;18261;53.648;9.910;2024-03-08T14:22:08;30.67;;;19.55;;
31652;SDS011;18261;53.648;9.910;2024-03-08T14:24:38;27.30;;;17.10;;
31652;SDS011;18261;53.648;9.910;2024-03-08T14:27:04;29.63;;;18.02;;